Terminal Aerodrome Forecast
Issued by NWS Billings, MT

Home | Current Version | Previous Version | Text Only | Print | Product List | Glossary Off
Versions: 1 2 3 4 5 6 7 8 9 10 11 12 13 14 15 16 17 18 19 20 21 22 23 24 25 26

000
FTUS45 KBYZ 231139
TAFMLS
TAF
KMLS 231139Z 2312/2412 13015KT P6SM VCSH SCT060 BKN100
     FM231500 15008KT P6SM VCSH FEW070 BKN100
     FM231900 32010KT P6SM SCT100
     FM240300 04007KT P6SM SCT120=

USA.gov is the U.S. government's official web portal to all federal, state and local government web resources and services.